Time;durP1;ratioP1;P1;durP2;ratioP2;P2;SDS_P1;SDS_P2;PMS_P1;PMS_P2;Temp;Humidity;BMP_temperature;BMP_pressure;BME280_temperature;BME280_humidity;BME280_pressure;Samples;Min_cycle;Max_cycle;Signal;HPM_P1;HPM_P2
2020/12/09 00:01:52;;;;;;;30.33;20.77;;;1.30;99.90;;;;;;5079675;28;20267;-72
2020/12/09 00:04:19;;;;;;;28.60;20.70;;;1.20;99.90;;;;;;5082004;28;20455;-72
2020/12/09 00:06:44;;;;;;;28.87;21.43;;;1.20;99.90;;;;;;5069326;28;20499;-72
2020/12/09 00:09:13;;;;;;;28.60;19.33;;;1.20;99.90;;;;;;5081178;28;20469;-72
2020/12/09 00:11:39;;;;;;;32.53;20.40;;;1.20;99.90;;;;;;5077146;28;20246;-74
2020/12/09 00:14:08;;;;;;;25.70;18.93;;;1.20;99.90;;;;;;5070899;28;20867;-73
2020/12/09 00:16:33;;;;;;;30.43;21.03;;;1.20;99.90;;;;;;5076674;28;20440;-73
2020/12/09 00:19:03;;;;;;;24.70;18.97;;;1.30;99.90;;;;;;5062104;28;20456;-74
2020/12/09 00:21:30;;;;;;;26.40;20.20;;;1.30;99.90;;;;;;5082315;28;20571;-73
2020/12/09 00:23:56;;;;;;;30.80;20.17;;;1.30;99.90;;;;;;5052903;28;20526;-72
2020/12/09 00:26:26;;;;;;;24.20;19.33;;;1.30;99.90;;;;;;5076945;28;20488;-72
2020/12/09 00:28:53;;;;;;;28.80;19.50;;;1.40;99.90;;;;;;5085930;28;20916;-72
2020/12/09 00:31:21;;;;;;;27.07;18.60;;;1.50;99.90;;;;;;5079629;28;20461;-72
2020/12/09 00:33:49;;;;;;;31.60;20.90;;;1.60;99.90;;;;;;5086293;28;20470;-72
2020/12/09 00:36:19;;;;;;;27.07;19.67;;;1.60;99.90;;;;;;5074053;28;20645;-73
2020/12/09 00:38:50;;;;;;;30.50;21.83;;;1.60;99.90;;;;;;5076879;28;20452;-72
2020/12/09 00:41:33;;;;;;;28.27;20.33;;;1.60;99.90;;;;;;5046394;28;20519;-73
2020/12/09 00:43:59;;;;;;;28.23;20.20;;;1.50;99.90;;;;;;5070985;28;20445;-73
2020/12/09 00:46:26;;;;;;;33.27;21.50;;;1.60;99.90;;;;;;5052177;28;20451;-72
2020/12/09 00:48:53;;;;;;;35.23;24.20;;;1.70;99.90;;;;;;5081503;28;20185;-73
2020/12/09 00:51:21;;;;;;;32.40;21.93;;;1.90;99.90;;;;;;5070100;28;20429;-72
2020/12/09 00:53:48;;;;;;;32.03;23.70;;;1.80;99.90;;;;;;5086536;28;20463;-72
2020/12/09 00:56:13;;;;;;;29.20;22.53;;;1.80;99.90;;;;;;5064339;28;20427;-72
2020/12/09 00:58:39;;;;;;;33.47;23.03;;;1.70;99.90;;;;;;5078872;28;20803;-71
2020/12/09 01:01:07;;;;;;;32.43;21.87;;;1.70;99.90;;;;;;5074191;28;20185;-72
2020/12/09 01:03:33;;;;;;;33.00;21.73;;;1.70;99.90;;;;;;5074913;28;20482;-71
2020/12/09 01:05:59;;;;;;;30.80;22.20;;;1.80;99.90;;;;;;5079349;28;20424;-72
2020/12/09 01:08:25;;;;;;;32.37;23.60;;;1.80;99.90;;;;;;5074709;28;20427;-72
2020/12/09 01:10:52;;;;;;;33.60;20.73;;;1.90;99.90;;;;;;5074357;28;20453;-72
2020/12/09 01:13:17;;;;;;;33.27;22.37;;;1.80;99.90;;;;;;5073605;28;20923;-72
2020/12/09 01:15:43;;;;;;;31.57;20.50;;;1.70;99.90;;;;;;5080345;28;20419;-73
2020/12/09 01:18:09;;;;;;;31.73;21.70;;;1.70;99.90;;;;;;5075473;28;20217;-72
2020/12/09 01:20:35;;;;;;;37.30;22.57;;;1.60;99.90;;;;;;5084999;28;20422;-72
2020/12/09 01:23:01;;;;;;;32.10;20.53;;;1.70;99.90;;;;;;5075229;28;20265;-74
2020/12/09 01:25:26;;;;;;;30.50;21.27;;;1.60;99.90;;;;;;5082888;28;20191;-72
2020/12/09 01:27:54;;;;;;;32.73;23.03;;;1.60;99.90;;;;;;5073723;28;20220;-72
2020/12/09 01:30:20;;;;;;;29.53;23.07;;;1.70;99.90;;;;;;5063933;28;20649;-72
2020/12/09 01:32:45;;;;;;;26.17;20.00;;;1.60;99.90;;;;;;5072996;28;20437;-72
2020/12/09 01:35:11;;;;;;;29.37;22.07;;;1.50;99.90;;;;;;5070142;28;20201;-73
2020/12/09 01:37:36;;;;;;;35.40;22.00;;;1.60;99.90;;;;;;5070393;28;20632;-72
2020/12/09 01:40:03;;;;;;;30.20;22.27;;;1.60;99.90;;;;;;5067315;28;20193;-72
2020/12/09 01:42:28;;;;;;;29.37;21.00;;;1.60;99.90;;;;;;5071514;28;20185;-72
2020/12/09 01:44:54;;;;;;;32.30;23.10;;;1.60;99.90;;;;;;5077945;28;20835;-69
2020/12/09 01:47:19;;;;;;;34.37;21.30;;;1.60;99.90;;;;;;5070527;28;20224;-74
2020/12/09 01:49:45;;;;;;;32.30;22.13;;;1.60;99.90;;;;;;5086990;28;20193;-73
2020/12/09 01:52:11;;;;;;;34.40;22.77;;;1.60;99.90;;;;;;5082953;28;20228;-73
2020/12/09 01:54:37;;;;;;;33.93;23.03;;;1.60;99.90;;;;;;5082450;28;20212;-73
2020/12/09 01:57:10;;;;;;;32.20;22.80;;;1.60;99.90;;;;;;5055440;28;20216;-74
2020/12/09 01:59:38;;;;;;;28.33;22.30;;;1.70;99.90;;;;;;5056602;28;20201;-73
2020/12/09 02:02:04;;;;;;;28.67;23.80;;;1.70;99.90;;;;;;5082226;28;20949;-74
2020/12/09 02:04:30;;;;;;;29.00;21.90;;;1.70;99.90;;;;;;5053120;28;20428;-73
2020/12/09 02:06:56;;;;;;;28.23;20.97;;;1.70;99.90;;;;;;5050248;28;20486;-72
2020/12/09 02:09:22;;;;;;;34.40;23.40;;;1.70;99.90;;;;;;5072384;28;20764;-73
2020/12/09 02:11:50;;;;;;;30.70;23.60;;;1.80;99.90;;;;;;5080397;28;20464;-73
2020/12/09 02:14:15;;;;;;;33.23;23.30;;;1.90;99.90;;;;;;5056268;28;20456;-74
2020/12/09 02:16:42;;;;;;;31.57;22.33;;;1.90;99.90;;;;;;5079527;28;20442;-73
2020/12/09 02:19:08;;;;;;;29.10;20.90;;;1.80;99.90;;;;;;5070298;28;20599;-73
2020/12/09 02:21:36;;;;;;;33.53;22.07;;;1.80;99.90;;;;;;5079821;28;20429;-75
2020/12/09 02:24:03;;;;;;;29.40;20.80;;;1.80;99.90;;;;;;5052201;28;20244;-74
2020/12/09 02:26:29;;;;;;;28.33;20.83;;;1.80;99.90;;;;;;5055377;28;20427;-75
2020/12/09 02:28:56;;;;;;;30.10;22.60;;;1.80;99.90;;;;;;5086671;28;20780;-74
2020/12/09 02:31:21;;;;;;;30.63;20.70;;;1.80;99.90;;;;;;5058473;28;20830;-74
2020/12/09 02:33:47;;;;;;;32.90;23.73;;;1.80;99.90;;;;;;5066249;28;20463;-74
2020/12/09 02:36:13;;;;;;;29.10;22.60;;;1.90;99.90;;;;;;5071687;28;20428;-73
2020/12/09 02:38:38;;;;;;;30.70;22.53;;;1.80;99.90;;;;;;5065981;28;20228;-75
2020/12/09 02:41:04;;;;;;;29.00;21.20;;;1.80;99.90;;;;;;5070161;28;20381;-74
2020/12/09 02:43:30;;;;;;;33.33;22.47;;;2.00;99.90;;;;;;5065744;28;20186;-73
2020/12/09 02:45:56;;;;;;;32.83;23.23;;;1.90;99.90;;;;;;5073574;28;20185;-74
2020/12/09 02:48:21;;;;;;;31.13;22.93;;;1.90;99.90;;;;;;5076989;28;20614;-73
2020/12/09 02:50:47;;;;;;;28.90;20.73;;;2.00;99.90;;;;;;5072161;28;20435;-74
2020/12/09 02:53:12;;;;;;;25.97;21.43;;;2.00;99.90;;;;;;5083855;28;20197;-73
2020/12/09 02:55:38;;;;;;;30.20;22.20;;;2.00;99.90;;;;;;5075348;28;20190;-74
2020/12/09 02:58:03;;;;;;;32.23;20.77;;;2.00;99.90;;;;;;5071899;28;20565;-74
2020/12/09 03:00:29;;;;;;;29.20;20.90;;;2.00;99.90;;;;;;5074856;28;20231;-75
2020/12/09 03:02:54;;;;;;;27.73;21.07;;;2.10;99.90;;;;;;5061445;28;20181;-74
2020/12/09 03:05:20;;;;;;;31.60;21.07;;;2.00;99.90;;;;;;5074920;28;20181;-74
2020/12/09 03:07:46;;;;;;;31.53;22.60;;;2.00;99.90;;;;;;5068431;28;20716;-74
2020/12/09 03:10:11;;;;;;;28.03;20.67;;;2.00;99.90;;;;;;5078805;28;20193;-73
2020/12/09 03:12:37;;;;;;;28.83;21.60;;;2.00;99.90;;;;;;5062535;28;20195;-71
2020/12/09 03:15:03;;;;;;;25.93;19.20;;;2.00;99.90;;;;;;5081178;28;20344;-73
2020/12/09 03:17:28;;;;;;;27.33;20.57;;;2.00;99.90;;;;;;5067264;28;20201;-74
2020/12/09 03:19:55;;;;;;;24.60;20.60;;;2.00;99.90;;;;;;5081473;28;20950;-73
2020/12/09 03:22:21;;;;;;;28.37;21.77;;;2.00;99.90;;;;;;5064982;28;20170;-73
2020/12/09 03:24:47;;;;;;;33.30;21.40;;;2.00;99.90;;;;;;5082100;28;20445;-73
2020/12/09 03:27:12;;;;;;;25.47;19.93;;;2.00;99.90;;;;;;5070837;28;20236;-72
2020/12/09 03:29:38;;;;;;;28.97;20.70;;;1.90;99.90;;;;;;5079919;28;20675;-74
2020/12/09 03:32:04;;;;;;;27.77;20.17;;;1.90;99.90;;;;;;5073224;28;20181;-74
2020/12/09 03:34:29;;;;;;;24.93;19.63;;;2.00;99.90;;;;;;5077253;28;20208;-73
2020/12/09 03:36:55;;;;;;;29.10;21.13;;;2.00;99.90;;;;;;5083953;28;20203;-70
2020/12/09 03:39:20;;;;;;;27.00;20.67;;;2.00;99.90;;;;;;5069759;28;20190;-75
2020/12/09 03:41:46;;;;;;;30.80;21.23;;;2.00;99.90;;;;;;5069570;28;20200;-74
2020/12/09 03:44:11;;;;;;;28.00;22.03;;;1.90;99.90;;;;;;5085951;28;20184;-73
2020/12/09 03:46:37;;;;;;;32.40;21.93;;;2.20;99.90;;;;;;5082930;28;20188;-73
2020/12/09 03:49:02;;;;;;;32.90;22.77;;;2.20;99.90;;;;;;5083759;28;20197;-73
2020/12/09 03:51:28;;;;;;;34.47;23.90;;;2.20;99.90;;;;;;5082142;28;20184;-73
2020/12/09 03:53:53;;;;;;;29.50;20.30;;;2.20;99.90;;;;;;5083709;28;20605;-74
2020/12/09 03:56:19;;;;;;;31.07;21.50;;;2.10;99.90;;;;;;5064082;28;20622;-74
2020/12/09 03:58:44;;;;;;;28.23;20.47;;;2.10;99.90;;;;;;5081906;28;20238;-74
2020/12/09 04:01:10;;;;;;;30.00;21.60;;;2.00;99.90;;;;;;5075004;28;20201;-74
2020/12/09 04:03:35;;;;;;;27.37;21.00;;;2.00;99.90;;;;;;5073671;28;20221;-72
2020/12/09 04:06:01;;;;;;;26.70;19.77;;;2.00;99.90;;;;;;5054378;28;20192;-74
2020/12/09 04:08:27;;;;;;;28.60;21.70;;;1.90;99.90;;;;;;5078382;28;20213;-73
2020/12/09 04:10:53;;;;;;;30.77;20.30;;;1.90;99.90;;;;;;5084523;28;20192;-72
2020/12/09 04:13:18;;;;;;;29.80;20.87;;;1.80;99.90;;;;;;5082861;28;20424;-75
2020/12/09 04:15:44;;;;;;;29.37;19.80;;;1.80;99.90;;;;;;5053158;28;20734;-73
2020/12/09 04:18:09;;;;;;;25.83;19.93;;;1.80;99.90;;;;;;5071719;28;21475;-73
2020/12/09 04:20:36;;;;;;;30.33;21.60;;;1.70;99.90;;;;;;5079876;28;20184;-73
2020/12/09 04:23:01;;;;;;;27.80;20.73;;;1.70;99.90;;;;;;5073807;28;20231;-72
2020/12/09 04:25:27;;;;;;;29.93;21.43;;;1.60;99.90;;;;;;5068857;28;20673;-74
2020/12/09 04:27:52;;;;;;;27.73;21.37;;;1.60;99.90;;;;;;5069021;28;20213;-74
2020/12/09 04:30:18;;;;;;;31.43;21.87;;;1.60;99.90;;;;;;5074106;28;20190;-74
2020/12/09 04:32:43;;;;;;;32.37;22.57;;;1.60;99.90;;;;;;5082838;28;20224;-73
2020/12/09 04:35:09;;;;;;;28.40;20.57;;;1.50;99.90;;;;;;5084220;28;20289;-74
2020/12/09 04:37:35;;;;;;;29.53;20.93;;;1.50;99.90;;;;;;5074563;28;20674;-73
2020/12/09 04:40:01;;;;;;;28.87;21.80;;;1.40;99.90;;;;;;5073672;28;20260;-74
2020/12/09 04:42:27;;;;;;;25.77;18.97;;;1.40;99.90;;;;;;5075973;28;20185;-74
2020/12/09 04:44:54;;;;;;;30.20;22.23;;;1.50;99.90;;;;;;5086127;28;20193;-73
2020/12/09 04:47:41;;;;;;;36.30;24.70;;;1.50;99.90;;;;;;5084244;28;20926;-73
2020/12/09 04:50:12;;;;;;;29.73;21.80;;;1.50;99.90;;;;;;5072360;28;20457;-73
2020/12/09 04:53:00;;;;;;;32.60;23.27;;;1.60;99.90;;;;;;5094778;28;20961;-74
2020/12/09 04:55:26;;;;;;;31.10;23.20;;;1.70;99.90;;;;;;5076111;28;20481;-75
2020/12/09 04:58:09;;;;;;;28.53;23.50;;;1.60;99.90;;;;;;5093674;28;20457;-75
2020/12/09 05:00:39;;;;;;;34.90;21.67;;;1.70;99.90;;;;;;5060725;28;20189;-74
2020/12/09 05:03:19;;;;;;;34.23;23.43;;;1.60;99.90;;;;;;5064878;28;20914;-74
2020/12/09 05:05:46;;;;;;;34.57;22.50;;;1.60;99.90;;;;;;5066959;28;20542;-72
2020/12/09 05:08:22;;;;;;;32.80;24.20;;;1.60;99.90;;;;;;5071144;28;20458;-74
2020/12/09 05:10:50;;;;;;;33.57;23.30;;;1.60;99.90;;;;;;5069293;28;20451;-73
2020/12/09 05:13:25;;;;;;;29.63;21.90;;;1.50;99.90;;;;;;5054282;28;20420;-73
2020/12/09 05:15:56;;;;;;;33.80;23.10;;;1.50;99.90;;;;;;5080917;28;20868;-73
2020/12/09 05:18:40;;;;;;;29.43;22.30;;;1.40;99.90;;;;;;5069794;28;20474;-74
2020/12/09 05:21:20;;;;;;;33.57;22.80;;;1.40;99.90;;;;;;5069519;28;20416;-73
2020/12/09 05:23:52;;;;;;;37.30;24.57;;;1.40;99.90;;;;;;5061269;28;21026;-74
2020/12/09 05:26:31;;;;;;;35.60;24.30;;;1.30;99.90;;;;;;5073220;28;20432;-74
2020/12/09 05:29:09;;;;;;;31.73;22.60;;;1.30;99.90;;;;;;5076925;28;20430;-74
2020/12/09 05:31:37;;;;;;;34.30;25.00;;;1.30;99.90;;;;;;5082935;28;20454;-74
2020/12/09 05:34:12;;;;;;;37.80;23.80;;;1.30;99.90;;;;;;5073437;28;20558;-73
2020/12/09 05:36:48;;;;;;;34.70;25.57;;;1.30;99.90;;;;;;5066641;28;20442;-73
2020/12/09 05:39:14;;;;;;;33.13;24.53;;;1.30;99.90;;;;;;5061549;28;20430;-75
2020/12/09 05:41:40;;;;;;;34.87;24.73;;;1.30;99.90;;;;;;5064927;28;20427;-74
2020/12/09 05:44:05;;;;;;;36.67;26.47;;;1.30;99.90;;;;;;5074628;28;20695;-75
2020/12/09 05:46:31;;;;;;;33.90;23.50;;;1.30;99.90;;;;;;5054930;28;20288;-74
2020/12/09 05:48:57;;;;;;;34.50;24.80;;;1.30;99.90;;;;;;5059165;28;20601;-74
2020/12/09 05:51:24;;;;;;;35.67;24.73;;;1.40;99.90;;;;;;5073158;28;20196;-74
2020/12/09 05:53:50;;;;;;;38.63;25.57;;;1.30;99.90;;;;;;5052816;28;20456;-74
2020/12/09 05:56:27;;;;;;;36.00;23.03;;;1.30;99.90;;;;;;5060399;28;20850;-74
2020/12/09 05:58:52;;;;;;;39.63;25.40;;;1.30;99.90;;;;;;5062892;28;20239;-74
2020/12/09 06:01:27;;;;;;;33.03;23.67;;;1.30;99.90;;;;;;5080395;28;20833;-74
2020/12/09 06:03:56;;;;;;;33.77;24.13;;;1.30;99.90;;;;;;5083786;28;20491;-75
2020/12/09 06:06:29;;;;;;;32.43;24.53;;;1.30;99.90;;;;;;5052514;28;20437;-74
2020/12/09 06:08:57;;;;;;;33.93;22.80;;;1.30;99.90;;;;;;5064786;28;20943;-74
2020/12/09 06:11:33;;;;;;;33.53;23.97;;;1.40;99.90;;;;;;5065141;28;20423;-73
2020/12/09 06:13:59;;;;;;;33.70;25.03;;;1.40;99.90;;;;;;5065098;28;20455;-73
2020/12/09 06:16:25;;;;;;;35.60;23.23;;;1.40;99.90;;;;;;5073143;28;20484;-74
2020/12/09 06:18:55;;;;;;;32.83;22.70;;;1.40;99.90;;;;;;5075719;28;20440;-74
2020/12/09 06:21:23;;;;;;;34.73;23.80;;;1.40;99.90;;;;;;5082839;28;20430;-75
2020/12/09 06:23:49;;;;;;;37.47;23.90;;;1.40;99.90;;;;;;5066830;28;20473;-74
2020/12/09 06:26:17;;;;;;;33.83;24.10;;;1.40;99.90;;;;;;5066688;28;20434;-75
2020/12/09 06:28:46;;;;;;;30.83;23.97;;;1.40;99.90;;;;;;5048317;28;20584;-74
2020/12/09 06:31:13;;;;;;;36.03;25.17;;;1.40;99.90;;;;;;5067694;28;21431;-77
2020/12/09 06:33:44;;;;;;;30.17;23.40;;;1.50;99.90;;;;;;5060021;28;20412;-75
2020/12/09 06:36:11;;;;;;;33.53;23.33;;;1.40;99.90;;;;;;5073365;28;20426;-75
2020/12/09 06:38:37;;;;;;;36.77;25.30;;;1.50;99.90;;;;;;5077171;28;20458;-75
2020/12/09 06:41:05;;;;;;;31.73;23.53;;;1.50;99.90;;;;;;5075106;28;20454;-75
2020/12/09 06:43:31;;;;;;;34.47;24.57;;;1.50;99.90;;;;;;5057384;28;20608;-76
2020/12/09 06:45:57;;;;;;;36.37;23.73;;;1.60;99.90;;;;;;5085574;28;20412;-76
2020/12/09 06:48:24;;;;;;;30.93;22.83;;;1.60;99.90;;;;;;5049531;28;20451;-75
2020/12/09 06:50:50;;;;;;;38.23;25.83;;;1.60;99.90;;;;;;5068872;28;20420;-75
2020/12/09 06:53:21;;;;;;;35.87;25.57;;;1.60;99.90;;;;;;5077904;28;20438;-75
2020/12/09 06:55:51;;;;;;;40.07;25.83;;;1.60;99.90;;;;;;5086029;28;20221;-75
2020/12/09 06:58:30;;;;;;;40.37;26.60;;;1.70;99.90;;;;;;5077864;28;20467;-75
2020/12/09 07:01:06;;;;;;;35.30;25.00;;;1.70;99.90;;;;;;5079582;28;20446;-75
2020/12/09 07:03:39;;;;;;;36.43;24.70;;;1.70;99.90;;;;;;5055930;28;20526;-75
2020/12/09 07:06:19;;;;;;;31.90;23.80;;;1.70;99.90;;;;;;5068474;28;20876;-74
2020/12/09 07:08:45;;;;;;;35.63;24.40;;;1.70;99.90;;;;;;5066782;28;20460;-75
2020/12/09 07:11:11;;;;;;;34.73;24.70;;;1.60;99.90;;;;;;5068092;28;20439;-75
2020/12/09 07:13:36;;;;;;;35.60;25.40;;;1.60;99.90;;;;;;5074828;28;20435;-75
2020/12/09 07:16:02;;;;;;;34.90;23.93;;;1.60;99.90;;;;;;5054244;28;20657;-74
2020/12/09 07:18:27;;;;;;;35.60;23.67;;;1.60;99.90;;;;;;5065733;28;20365;-74
2020/12/09 07:20:53;;;;;;;32.40;24.20;;;1.60;99.90;;;;;;5079859;28;20185;-73
2020/12/09 07:23:19;;;;;;;32.80;24.17;;;1.60;99.90;;;;;;5071234;28;20177;-74
2020/12/09 07:25:44;;;;;;;36.23;23.13;;;1.60;99.90;;;;;;5086175;28;20231;-74
2020/12/09 07:28:10;;;;;;;34.97;23.90;;;1.60;99.90;;;;;;5080516;28;20225;-73
2020/12/09 07:30:36;;;;;;;32.57;22.87;;;1.60;99.90;;;;;;5056706;28;20274;-74
2020/12/09 07:33:02;;;;;;;32.47;24.23;;;1.60;99.90;;;;;;5078551;28;20186;-74
2020/12/09 07:35:28;;;;;;;34.20;25.73;;;1.60;99.90;;;;;;5066495;28;20474;-74
2020/12/09 07:37:59;;;;;;;34.27;24.53;;;1.80;99.90;;;;;;5048257;28;20220;-74
2020/12/09 07:40:29;;;;;;;33.90;23.57;;;1.80;99.90;;;;;;5066361;28;20205;-74
2020/12/09 07:43:01;;;;;;;36.70;24.13;;;1.80;99.90;;;;;;5066268;28;20427;-74
2020/12/09 07:45:27;;;;;;;34.93;25.93;;;1.80;99.90;;;;;;5081071;28;20423;-74
2020/12/09 07:48:14;;;;;;;34.07;24.63;;;1.90;99.90;;;;;;5086093;28;20455;-74
2020/12/09 07:50:47;;;;;;;31.63;23.27;;;1.90;99.90;;;;;;5085954;28;20199;-75
2020/12/09 07:53:12;;;;;;;35.60;25.77;;;1.90;99.90;;;;;;5085989;28;20419;-75
2020/12/09 07:55:38;;;;;;;34.83;24.63;;;1.90;99.90;;;;;;5072258;28;20567;-73
2020/12/09 07:58:06;;;;;;;35.70;24.43;;;2.00;99.90;;;;;;5063135;28;20740;-74
2020/12/09 08:00:40;;;;;;;34.60;23.30;;;2.00;99.90;;;;;;5082795;28;20196;-72
2020/12/09 08:03:06;;;;;;;39.30;25.27;;;2.00;99.90;;;;;;5056699;28;20518;-73
2020/12/09 08:05:37;;;;;;;34.40;25.20;;;2.00;99.90;;;;;;5078120;28;20442;-72
2020/12/09 08:08:08;;;;;;;42.67;23.37;;;2.00;99.90;;;;;;5069915;28;20463;-72
2020/12/09 08:10:35;;;;;;;36.10;25.37;;;1.90;99.90;;;;;;5065302;28;20515;-75
2020/12/09 08:13:05;;;;;;;32.47;24.00;;;2.00;99.90;;;;;;5083336;28;20419;-75
2020/12/09 08:15:36;;;;;;;38.70;25.77;;;2.00;99.90;;;;;;5075213;28;20467;-76
2020/12/09 08:18:02;;;;;;;40.00;26.60;;;2.00;99.90;;;;;;5072773;28;20463;-75
2020/12/09 08:20:28;;;;;;;31.03;24.60;;;2.10;99.90;;;;;;5054693;28;20430;-73
2020/12/09 08:23:02;;;;;;;34.70;23.77;;;2.10;99.90;;;;;;5072055;28;20430;-73
2020/12/09 08:25:30;;;;;;;35.60;25.57;;;2.10;99.90;;;;;;5076269;28;20423;-73
2020/12/09 08:28:04;;;;;;;38.37;25.80;;;2.10;99.90;;;;;;5076094;28;20446;-72
2020/12/09 08:30:29;;;;;;;31.80;23.97;;;2.20;99.90;;;;;;5089002;28;20426;-74
2020/12/09 08:33:10;;;;;;;38.20;25.57;;;2.20;99.90;;;;;;5083129;28;20451;-75
2020/12/09 08:35:58;;;;;;;35.43;23.63;;;2.20;99.90;;;;;;5069910;28;20216;-76
2020/12/09 08:38:49;;;;;;;32.70;23.10;;;2.30;99.90;;;;;;5066068;28;20447;-75
2020/12/09 08:41:16;;;;;;;36.47;26.00;;;2.20;99.90;;;;;;5060143;28;20428;-76
2020/12/09 08:43:43;;;;;;;38.37;24.93;;;2.30;99.90;;;;;;5065362;28;20441;-76
2020/12/09 08:46:10;;;;;;;35.67;25.67;;;2.30;99.90;;;;;;5075505;28;20463;-73
2020/12/09 08:48:40;;;;;;;33.20;25.07;;;2.30;99.90;;;;;;5066928;28;20475;-73
2020/12/09 08:51:07;;;;;;;36.13;25.47;;;2.40;99.90;;;;;;5073963;28;20423;-73
2020/12/09 08:53:32;;;;;;;30.27;22.97;;;2.40;99.90;;;;;;5069655;28;20443;-73
2020/12/09 08:55:58;;;;;;;37.20;23.33;;;2.50;99.90;;;;;;5050323;28;20431;-76
2020/12/09 08:58:24;;;;;;;36.70;24.80;;;2.50;99.90;;;;;;5067826;28;20599;-73
2020/12/09 09:00:49;;;;;;;38.73;25.53;;;2.60;99.90;;;;;;5068982;28;20262;-73
2020/12/09 09:03:19;;;;;;;33.87;25.47;;;2.50;99.90;;;;;;5088718;28;20446;-74
2020/12/09 09:05:46;;;;;;;32.60;23.40;;;2.50;99.90;;;;;;5059220;28;20217;-73
2020/12/09 09:08:13;;;;;;;33.53;24.60;;;2.60;99.90;;;;;;5072061;28;20476;-73
2020/12/09 09:10:41;;;;;;;34.10;23.20;;;2.60;99.90;;;;;;5068495;28;20973;-73
2020/12/09 09:13:06;;;;;;;35.50;23.97;;;2.70;99.90;;;;;;5083897;28;20447;-73
2020/12/09 09:15:33;;;;;;;35.57;24.13;;;2.70;99.90;;;;;;5052509;28;20976;-73
2020/12/09 09:18:03;;;;;;;33.10;23.33;;;2.70;99.90;;;;;;5085835;28;20568;-73
2020/12/09 09:20:29;;;;;;;47.57;30.43;;;2.70;99.90;;;;;;5070027;28;20423;-73
2020/12/09 09:22:54;;;;;;;34.97;25.83;;;2.80;99.90;;;;;;5078539;28;20986;-74
2020/12/09 09:25:21;;;;;;;32.13;24.53;;;2.80;99.90;;;;;;5067545;28;20420;-73
2020/12/09 09:27:48;;;;;;;31.40;22.70;;;2.80;99.90;;;;;;5081679;28;20689;-74
2020/12/09 09:30:13;;;;;;;31.23;23.97;;;2.90;99.90;;;;;;5069773;28;20419;-73
2020/12/09 09:32:39;;;;;;;31.20;22.87;;;2.90;99.90;;;;;;5088135;28;20429;-73
2020/12/09 09:35:05;;;;;;;32.27;23.10;;;3.00;99.90;;;;;;5088104;28;20227;-75
2020/12/09 09:37:31;;;;;;;34.63;25.90;;;3.00;99.90;;;;;;5080086;28;20684;-73
2020/12/09 09:39:57;;;;;;;39.73;27.77;;;2.90;99.90;;;;;;5069872;28;20185;-76
2020/12/09 09:42:23;;;;;;;41.10;29.57;;;2.90;99.90;;;;;;5069557;28;20177;-74
2020/12/09 09:44:49;;;;;;;34.00;24.50;;;3.00;99.90;;;;;;5070469;28;21027;-76
2020/12/09 09:47:15;;;;;;;35.63;25.27;;;2.90;99.90;;;;;;5091937;28;20459;-75
2020/12/09 09:49:41;;;;;;;41.63;25.80;;;3.10;99.90;;;;;;5085391;28;20419;-74
2020/12/09 09:52:07;;;;;;;37.97;27.13;;;3.00;99.90;;;;;;5104655;28;20193;-75
2020/12/09 09:54:33;;;;;;;33.70;24.03;;;3.10;99.90;;;;;;5070664;28;20212;-74
2020/12/09 09:56:58;;;;;;;35.33;26.63;;;3.10;99.90;;;;;;5087203;28;20466;-74
2020/12/09 09:59:24;;;;;;;37.67;23.97;;;3.10;99.90;;;;;;5073400;28;20188;-74
2020/12/09 10:01:53;;;;;;;30.60;22.40;;;3.10;99.90;;;;;;5054289;28;20657;-74
2020/12/09 10:04:22;;;;;;;33.97;21.93;;;3.10;99.90;;;;;;5067116;28;21022;-75
2020/12/09 10:06:50;;;;;;;31.87;23.07;;;3.20;99.90;;;;;;5048348;28;20456;-75
2020/12/09 10:09:16;;;;;;;31.60;23.20;;;3.30;99.90;;;;;;5068404;28;20523;-75
2020/12/09 10:11:42;;;;;;;26.90;21.43;;;3.30;99.90;;;;;;5080014;28;21019;-76
2020/12/09 10:14:08;;;;;;;30.27;21.90;;;3.30;99.90;;;;;;5080836;28;20553;-75
2020/12/09 10:16:35;;;;;;;37.47;25.93;;;3.30;99.90;;;;;;5077171;28;20431;-74
2020/12/09 10:19:03;;;;;;;33.33;23.80;;;3.40;99.90;;;;;;5067307;28;20424;-76
2020/12/09 10:21:30;;;;;;;33.37;22.43;;;3.40;99.90;;;;;;5054082;28;20429;-76
2020/12/09 10:23:57;;;;;;;27.30;20.93;;;3.40;99.90;;;;;;5050389;28;20948;-74
2020/12/09 10:26:34;;;;;;;31.73;20.77;;;3.30;99.90;;;;;;5071741;28;20443;-73
2020/12/09 10:29:01;;;;;;;36.93;22.27;;;3.40;99.90;;;;;;5074104;28;20427;-75
2020/12/09 10:31:39;;;;;;;28.57;22.03;;;3.50;99.90;;;;;;5083428;28;20428;-75
2020/12/09 10:34:06;;;;;;;29.60;21.03;;;3.50;99.90;;;;;;5069413;28;20982;-74
2020/12/09 10:36:33;;;;;;;30.33;21.70;;;3.50;99.90;;;;;;5069352;28;20809;-74
2020/12/09 10:38:59;;;;;;;33.63;23.17;;;3.50;99.90;;;;;;5057252;28;20477;-75
2020/12/09 10:41:25;;;;;;;35.90;23.33;;;3.70;99.90;;;;;;5073920;28;20433;-75
2020/12/09 10:43:52;;;;;;;31.30;22.63;;;3.60;99.90;;;;;;5099203;28;21020;-75
2020/12/09 10:46:21;;;;;;;32.50;23.23;;;3.60;99.90;;;;;;5077672;28;20178;-75
2020/12/09 10:48:47;;;;;;;33.17;23.83;;;3.60;99.90;;;;;;5092619;28;20522;-75
2020/12/09 10:51:14;;;;;;;32.80;23.07;;;3.60;99.90;;;;;;5083976;28;20442;-73
2020/12/09 10:53:39;;;;;;;34.20;23.90;;;3.70;99.90;;;;;;5083068;28;20184;-75
2020/12/09 10:56:05;;;;;;;31.77;25.73;;;3.70;99.90;;;;;;5086562;28;20415;-75
2020/12/09 10:58:31;;;;;;;35.93;23.63;;;3.60;99.90;;;;;;5077190;28;20209;-76
2020/12/09 11:00:57;;;;;;;30.10;22.20;;;3.70;99.90;;;;;;5051632;28;20185;-73
2020/12/09 11:03:23;;;;;;;39.90;26.30;;;3.60;99.90;;;;;;5075047;28;20185;-74
2020/12/09 11:05:49;;;;;;;33.57;21.97;;;3.60;99.90;;;;;;5062783;28;20421;-76
2020/12/09 11:08:15;;;;;;;33.70;24.23;;;3.60;99.90;;;;;;5078442;28;20462;-74
2020/12/09 11:10:41;;;;;;;35.33;24.43;;;3.70;99.90;;;;;;5087952;28;20566;-74
2020/12/09 11:13:08;;;;;;;39.70;25.37;;;3.70;99.90;;;;;;5085896;28;20249;-75
2020/12/09 11:15:33;;;;;;;39.23;25.63;;;3.70;99.90;;;;;;5084877;28;20265;-75
2020/12/09 11:17:59;;;;;;;35.60;22.40;;;3.70;99.90;;;;;;5078987;28;20451;-74
2020/12/09 11:20:26;;;;;;;33.83;22.80;;;3.80;99.90;;;;;;5067602;28;20177;-74
2020/12/09 11:22:52;;;;;;;36.37;24.00;;;3.70;99.90;;;;;;5068265;28;20832;-74
2020/12/09 11:25:18;;;;;;;33.33;23.30;;;3.70;99.90;;;;;;5065667;28;20432;-74
2020/12/09 11:27:43;;;;;;;36.40;23.60;;;3.70;99.90;;;;;;5066036;28;20213;-74
2020/12/09 11:30:09;;;;;;;29.80;21.33;;;3.80;99.90;;;;;;5081512;28;20668;-74
2020/12/09 11:32:35;;;;;;;39.43;25.77;;;3.80;99.90;;;;;;5076723;28;20185;-75
2020/12/09 11:35:02;;;;;;;33.53;22.40;;;3.80;99.90;;;;;;5068473;28;20331;-75
2020/12/09 11:37:27;;;;;;;34.50;22.97;;;3.90;99.90;;;;;;5077313;28;20500;-75
2020/12/09 11:39:53;;;;;;;29.87;21.80;;;3.80;99.90;;;;;;5058933;28;20439;-75
2020/12/09 11:42:19;;;;;;;32.37;23.10;;;3.80;99.90;;;;;;5082011;28;20185;-73
2020/12/09 11:44:44;;;;;;;29.37;21.80;;;3.90;99.90;;;;;;5074996;28;20437;-75
2020/12/09 11:47:10;;;;;;;31.77;21.00;;;3.80;99.90;;;;;;5075620;28;20256;-75
2020/12/09 11:49:36;;;;;;;29.87;20.50;;;3.90;99.90;;;;;;5047400;28;20182;-75
2020/12/09 11:52:01;;;;;;;28.13;21.70;;;3.90;99.90;;;;;;5068284;28;20250;-75
2020/12/09 11:54:27;;;;;;;30.17;21.97;;;4.00;99.90;;;;;;5056175;28;20566;-76
2020/12/09 11:56:56;;;;;;;35.20;23.43;;;4.00;99.90;;;;;;5069930;28;20309;-75
2020/12/09 11:59:22;;;;;;;32.97;22.20;;;4.10;99.90;;;;;;5050602;28;20181;-75
2020/12/09 12:01:47;;;;;;;30.80;21.43;;;4.10;99.90;;;;;;5079643;28;21016;-76
2020/12/09 12:04:13;;;;;;;32.97;21.27;;;4.10;99.90;;;;;;5066661;28;20697;-76
2020/12/09 12:06:38;;;;;;;35.07;22.40;;;4.10;99.90;;;;;;5085252;28;20197;-75
2020/12/09 12:09:04;;;;;;;30.00;22.60;;;4.10;99.90;;;;;;5053798;28;20213;-75
2020/12/09 12:11:29;;;;;;;34.00;22.47;;;4.10;99.90;;;;;;5066479;28;20185;-76
2020/12/09 12:13:55;;;;;;;33.87;22.07;;;4.10;99.90;;;;;;5062691;28;20562;-74
2020/12/09 12:16:23;;;;;;;30.63;22.27;;;4.00;99.90;;;;;;5089347;28;20184;-76
2020/12/09 12:18:49;;;;;;;29.30;20.50;;;4.10;99.90;;;;;;5074607;28;20206;-76
2020/12/09 12:21:16;;;;;;;31.03;21.83;;;4.10;99.90;;;;;;5052840;28;20435;-74
2020/12/09 12:23:42;;;;;;;32.40;22.70;;;4.10;99.90;;;;;;5080815;28;20434;-74
2020/12/09 12:26:08;;;;;;;33.33;22.30;;;4.10;99.90;;;;;;5063966;28;20804;-76
2020/12/09 12:28:34;;;;;;;33.43;22.30;;;4.10;99.90;;;;;;5080242;28;20216;-74
2020/12/09 12:31:00;;;;;;;29.47;21.10;;;4.10;99.90;;;;;;5059982;28;20432;-75
2020/12/09 12:33:25;;;;;;;34.80;21.97;;;4.10;99.90;;;;;;5084706;28;20248;-74
2020/12/09 12:35:51;;;;;;;33.13;22.47;;;4.00;99.90;;;;;;5075021;28;20216;-75
2020/12/09 12:38:17;;;;;;;34.37;23.83;;;4.00;99.90;;;;;;5074020;28;20526;-75